Bradley, California
Current Conditions -  °F | °C
As of 1:53 PM on Thursday 23 Oct 2014 (Local Time) from KPRB Reporting Station
Clear Clear  
Wind Chill: 79°   Ceiling: Unl
Heat Index: 79°   Visibility: 10mi
Dew Point: 40°   Wind: 0mph
Humidity: 25%   Direction: NA
Pressure: 30"   Gusts: NA
Location:  35.86°N, 120.8°W
Report Text: KPRB 232053Z AUTO 00000KT 10SM CLR 26/04 A3000 RMK AO2 SLP152 T02610044 58026 TSNO
Loading
Personal Weather Stations






























Interactive Weather Map
Tropical Storm Tracking
New forecast layout! Learn more

10-Day Weather Forecast

Advertisements
Track Severe Weather on mobile